Time;durP1;ratioP1;P1;durP2;ratioP2;P2;SDS_P1;SDS_P2;PMS_P1;PMS_P2;Temp;Humidity;BMP_temperature;BMP_pressure;BME280_temperature;BME280_humidity;BME280_pressure;Samples;Min_cycle;Max_cycle;Signal;HPM_P1;HPM_P2
2024/02/16 00:00:59;;;;;;;;;;;18.10;44.40;;;;;;1608868;73;736;-70
2024/02/16 00:03:01;;;;;;;;;;;18.00;44.20;;;;;;1605853;73;662;-69
2024/02/16 00:05:05;;;;;;;;;;;18.10;44.30;;;;;;1602774;73;1092;-70
2024/02/16 00:07:06;;;;;;;;;;;18.00;44.20;;;;;;1604416;73;595;-69
2024/02/16 00:09:09;;;;;;;;;;;18.10;44.30;;;;;;1599846;73;661;-68
2024/02/16 00:11:11;;;;;;;;;;;18.10;44.30;;;;;;1602685;73;625;-70
2024/02/16 00:13:13;;;;;;;;;;;18.10;44.30;;;;;;1605318;73;1134;-70
2024/02/16 00:15:15;;;;;;;;;;;18.10;44.30;;;;;;1614259;73;642;-70
2024/02/16 00:17:17;;;;;;;;;;;18.10;44.30;;;;;;1608910;73;688;-73
2024/02/16 00:19:19;;;;;;;;;;;18.10;44.30;;;;;;1607019;73;1927;-70
2024/02/16 00:21:21;;;;;;;;;;;18.10;44.30;;;;;;1599333;73;681;-70
2024/02/16 00:23:25;;;;;;;;;;;18.00;44.20;;;;;;1601256;73;1122;-70
2024/02/16 00:25:26;;;;;;;;;;;18.10;44.30;;;;;;1601851;73;675;-70
2024/02/16 00:27:28;;;;;;;;;;;18.10;44.30;;;;;;1605861;73;666;-70
2024/02/16 00:29:30;;;;;;;;;;;18.10;44.20;;;;;;1612426;73;800;-73
2024/02/16 00:31:32;;;;;;;;;;;18.10;44.30;;;;;;1603302;73;1334;-67
2024/02/16 00:33:34;;;;;;;;;;;18.10;44.20;;;;;;1601008;73;1084;-67
2024/02/16 00:35:36;;;;;;;;;;;18.00;44.10;;;;;;1600741;73;703;-67
2024/02/16 00:37:38;;;;;;;;;;;18.10;44.20;;;;;;1614167;73;641;-67
2024/02/16 00:39:42;;;;;;;;;;;18.10;44.20;;;;;;1623641;73;1924;-68
2024/02/16 00:41:46;;;;;;;;;;;18.10;44.30;;;;;;1599796;73;686;-72
2024/02/16 00:43:48;;;;;;;;;;;18.00;44.10;;;;;;1610701;73;1166;-67
2024/02/16 00:45:49;;;;;;;;;;;18.10;44.20;;;;;;1605507;73;732;-69
2024/02/16 00:47:51;;;;;;;;;;;18.10;44.20;;;;;;1601808;73;658;-71
2024/02/16 00:49:53;;;;;;;;;;;18.10;44.20;;;;;;1606523;73;639;-70
2024/02/16 00:51:55;;;;;;;;;;;18.10;44.20;;;;;;1600449;73;626;-70
2024/02/16 00:53:57;;;;;;;;;;;18.00;44.10;;;;;;1614101;73;1153;-71
2024/02/16 00:55:59;;;;;;;;;;;18.10;44.20;;;;;;1600596;73;665;-71
2024/02/16 00:58:01;;;;;;;;;;;18.20;44.20;;;;;;1612457;73;688;-69
2024/02/16 01:00:03;;;;;;;;;;;18.10;44.20;;;;;;1608861;73;2316;-70
2024/02/16 01:02:05;;;;;;;;;;;18.00;44.20;;;;;;1614253;73;669;-73
2024/02/16 01:04:09;;;;;;;;;;;18.10;44.20;;;;;;1605723;73;1147;-72
2024/02/16 01:06:11;;;;;;;;;;;18.10;44.20;;;;;;1601942;73;718;-70
2024/02/16 01:08:13;;;;;;;;;;;18.10;44.20;;;;;;1602198;73;626;-71
2024/02/16 01:10:14;;;;;;;;;;;18.00;44.10;;;;;;1596126;73;666;-69
2024/02/16 01:12:16;;;;;;;;;;;18.10;44.20;;;;;;1604763;73;718;-69
2024/02/16 01:14:18;;;;;;;;;;;18.10;44.20;;;;;;1613795;73;1118;-69
2024/02/16 01:16:20;;;;;;;;;;;18.10;44.20;;;;;;1614602;73;667;-67
2024/02/16 01:18:22;;;;;;;;;;;18.00;44.10;;;;;;1597153;73;644;-70
2024/02/16 01:20:24;;;;;;;;;;;18.10;44.20;;;;;;1600550;73;1929;-67
2024/02/16 01:22:29;;;;;;;;;;;18.10;44.20;;;;;;1608149;73;620;-70
2024/02/16 01:24:29;;;;;;;;;;;18.10;44.20;;;;;;1602670;73;1592;-70
2024/02/16 01:26:31;;;;;;;;;;;18.00;44.10;;;;;;1606751;73;715;-73
2024/02/16 01:28:33;;;;;;;;;;;18.10;44.10;;;;;;1603713;73;1533;-70
2024/02/16 01:30:36;;;;;;;;;;;18.00;44.10;;;;;;1613419;73;837;-69
2024/02/16 01:32:38;;;;;;;;;;;18.10;44.10;;;;;;1604164;73;669;-71
2024/02/16 01:34:40;;;;;;;;;;;18.10;44.20;;;;;;1610616;73;1134;-68
2024/02/16 01:36:42;;;;;;;;;;;18.10;44.20;;;;;;1602036;73;573;-71
2024/02/16 01:38:44;;;;;;;;;;;18.10;44.20;;;;;;1600641;73;772;-70
2024/02/16 01:40:45;;;;;;;;;;;18.10;44.20;;;;;;1602987;74;630;-73
2024/02/16 01:42:47;;;;;;;;;;;18.10;44.20;;;;;;1607299;73;562;-70
2024/02/16 01:44:49;;;;;;;;;;;18.00;44.00;;;;;;1606024;73;1137;-70
2024/02/16 01:46:51;;;;;;;;;;;18.10;44.10;;;;;;1601185;73;706;-70
2024/02/16 01:48:54;;;;;;;;;;;18.10;44.20;;;;;;1602697;72;3099;-75
2024/02/16 01:50:57;;;;;;;;;;;18.10;44.20;;;;;;1587840;73;981;-74
2024/02/16 01:52:59;;;;;;;;;;;18.00;44.00;;;;;;1588593;73;669;-79
2024/02/16 01:55:03;;;;;;;;;;;18.10;44.20;;;;;;1589950;73;688;-75
2024/02/16 01:57:05;;;;;;;;;;;18.20;44.10;;;;;;1588972;73;701;-76
2024/02/16 01:59:07;;;;;;;;;;;18.10;44.10;;;;;;1585010;74;1954;-75
2024/02/16 02:01:09;;;;;;;;;;;18.10;44.20;;;;;;1583923;73;676;-75
2024/02/16 02:03:13;;;;;;;;;;;18.10;44.10;;;;;;1592324;73;674;-76
2024/02/16 02:05:14;;;;;;;;;;;18.10;44.20;;;;;;1589382;74;774;-76
2024/02/16 02:07:16;;;;;;;;;;;18.10;44.10;;;;;;1581089;74;652;-79
2024/02/16 02:09:18;;;;;;;;;;;18.00;44.00;;;;;;1564018;73;547;-74
2024/02/16 02:11:20;;;;;;;;;;;18.10;44.20;;;;;;1583107;74;659;-73
2024/02/16 02:13:22;;;;;;;;;;;18.00;44.00;;;;;;1590894;73;563;-75
2024/02/16 02:15:24;;;;;;;;;;;18.10;44.10;;;;;;1588942;73;751;-73
2024/02/16 02:17:26;;;;;;;;;;;18.00;44.00;;;;;;1576957;73;1159;-73
2024/02/16 02:19:27;;;;;;;;;;;18.10;44.20;;;;;;1577723;74;1928;-76
2024/02/16 02:21:29;;;;;;;;;;;18.10;44.10;;;;;;1581742;73;718;-79
2024/02/16 02:23:31;;;;;;;;;;;18.10;44.10;;;;;;1610821;73;637;-75
2024/02/16 02:25:33;;;;;;;;;;;18.00;44.00;;;;;;1577700;73;1331;-75
2024/02/16 02:27:35;;;;;;;;;;;18.10;44.10;;;;;;1569875;73;1108;-76
2024/02/16 02:29:37;;;;;;;;;;;18.00;44.00;;;;;;1590801;73;696;-76
2024/02/16 02:31:39;;;;;;;;;;;18.10;44.10;;;;;;1566380;73;686;-76
2024/02/16 02:33:41;;;;;;;;;;;18.00;44.00;;;;;;1578432;73;874;-75
2024/02/16 02:35:43;;;;;;;;;;;18.10;44.10;;;;;;1577726;74;647;-77
2024/02/16 02:37:45;;;;;;;;;;;18.10;44.20;;;;;;1573265;73;1096;-75
2024/02/16 02:39:47;;;;;;;;;;;18.00;44.00;;;;;;1573608;73;1944;-77
2024/02/16 02:41:49;;;;;;;;;;;18.00;43.90;;;;;;1583443;73;646;-77
2024/02/16 02:43:52;;;;;;;;;;;18.10;44.10;;;;;;1575592;73;644;-80
2024/02/16 02:45:54;;;;;;;;;;;18.10;44.10;;;;;;1578970;73;771;-75
2024/02/16 02:47:56;;;;;;;;;;;18.00;43.90;;;;;;1583985;73;1144;-74
2024/02/16 02:49:57;;;;;;;;;;;18.00;43.90;;;;;;1578539;74;723;-75
2024/02/16 02:51:59;;;;;;;;;;;18.00;44.00;;;;;;1569668;73;690;-77
2024/02/16 02:54:01;;;;;;;;;;;18.00;44.00;;;;;;1576211;73;688;-75
2024/02/16 02:56:03;;;;;;;;;;;18.10;44.10;;;;;;1581085;73;727;-74
2024/02/16 02:58:05;;;;;;;;;;;18.00;43.90;;;;;;1582745;73;1173;-74
2024/02/16 03:00:13;;;;;;;;;;;18.00;43.90;;;;;;1587500;73;1936;-74
2024/02/16 03:02:16;;;;;;;;;;;18.00;44.00;;;;;;1591212;74;703;-74
2024/02/16 03:04:18;;;;;;;;;;;18.00;43.90;;;;;;1579751;74;596;-75
2024/02/16 03:06:20;;;;;;;;;;;18.10;44.20;;;;;;1588413;73;744;-73
2024/02/16 03:08:21;;;;;;;;;;;18.10;44.10;;;;;;1577402;73;1150;-78
2024/02/16 03:10:23;;;;;;;;;;;18.10;44.10;;;;;;1577032;74;651;-80
2024/02/16 03:12:25;;;;;;;;;;;18.10;44.10;;;;;;1590873;73;657;-78
2024/02/16 03:14:27;;;;;;;;;;;18.10;44.00;;;;;;1590441;73;578;-76
2024/02/16 03:16:29;;;;;;;;;;;18.10;44.10;;;;;;1584995;73;653;-75
2024/02/16 03:18:31;;;;;;;;;;;18.10;44.00;;;;;;1588431;73;1127;-76
2024/02/16 03:20:33;;;;;;;;;;;18.00;43.90;;;;;;1590465;73;1937;-78
2024/02/16 03:22:35;;;;;;;;;;;18.00;43.90;;;;;;1573006;73;683;-75
2024/02/16 03:24:37;;;;;;;;;;;18.00;43.90;;;;;;1587946;73;619;-73
2024/02/16 03:26:39;;;;;;;;;;;18.10;44.00;;;;;;1589203;73;691;-75
2024/02/16 03:28:41;;;;;;;;;;;18.00;43.90;;;;;;1592673;73;1161;-76
2024/02/16 03:30:42;;;;;;;;;;;18.10;44.10;;;;;;1574906;73;698;-75
2024/02/16 03:32:46;;;;;;;;;;;18.00;43.90;;;;;;1590681;73;675;-78
2024/02/16 03:34:48;;;;;;;;;;;18.10;44.00;;;;;;1588731;73;1145;-75
2024/02/16 03:36:50;;;;;;;;;;;18.10;44.00;;;;;;1595595;73;741;-72
2024/02/16 03:38:52;;;;;;;;;;;18.10;44.00;;;;;;1596393;72;1147;-75
2024/02/16 03:40:54;;;;;;;;;;;18.00;44.00;;;;;;1592088;73;1945;-76
2024/02/16 03:42:56;;;;;;;;;;;18.00;43.90;;;;;;1586705;73;673;-76
2024/02/16 03:44:57;;;;;;;;;;;18.00;44.00;;;;;;1587272;73;651;-77
2024/02/16 03:46:59;;;;;;;;;;;18.10;44.10;;;;;;1581660;73;675;-75
2024/02/16 03:49:01;;;;;;;;;;;18.00;44.00;;;;;;1592783;73;1101;-80
2024/02/16 03:51:03;;;;;;;;;;;18.10;44.10;;;;;;1586729;73;701;-74
2024/02/16 03:53:05;;;;;;;;;;;18.00;43.90;;;;;;1592566;74;671;-74
2024/02/16 03:55:07;;;;;;;;;;;18.10;44.10;;;;;;1587935;73;671;-76
2024/02/16 03:57:11;;;;;;;;;;;17.50;43.70;;;;;;1593220;74;723;-75
2024/02/16 03:59:12;;;;;;;;;;;18.00;43.90;;;;;;1592557;73;1174;-73
2024/02/16 04:01:14;;;;;;;;;;;18.10;44.10;;;;;;1589884;73;1937;-74
2024/02/16 04:03:16;;;;;;;;;;;18.10;44.10;;;;;;1588865;73;671;-77
2024/02/16 04:05:18;;;;;;;;;;;18.00;43.90;;;;;;1590609;73;785;-78
2024/02/16 04:07:20;;;;;;;;;;;18.10;44.00;;;;;;1582111;73;1184;-78
2024/02/16 04:09:22;;;;;;;;;;;18.00;43.90;;;;;;1583304;73;724;-77
2024/02/16 04:11:24;;;;;;;;;;;18.10;44.10;;;;;;1592182;73;697;-74
2024/02/16 04:13:26;;;;;;;;;;;18.00;43.90;;;;;;1590313;73;682;-75
2024/02/16 04:15:28;;;;;;;;;;;18.00;43.90;;;;;;1593081;73;672;-76
2024/02/16 04:17:30;;;;;;;;;;;18.00;43.90;;;;;;1570619;73;1520;-75
2024/02/16 04:19:32;;;;;;;;;;;18.10;44.00;;;;;;1598382;73;666;-75
2024/02/16 04:21:34;;;;;;;;;;;18.00;43.90;;;;;;1586399;73;1909;-75
2024/02/16 04:23:36;;;;;;;;;;;18.00;43.90;;;;;;1591670;73;694;-75
2024/02/16 04:25:38;;;;;;;;;;;18.00;43.90;;;;;;1593361;73;711;-76
2024/02/16 04:27:40;;;;;;;;;;;18.00;43.90;;;;;;1573888;73;1139;-74
2024/02/16 04:29:42;;;;;;;;;;;18.10;44.00;;;;;;1579476;73;694;-77
2024/02/16 04:31:46;;;;;;;;;;;18.10;44.00;;;;;;1592016;73;634;-77
2024/02/16 04:33:47;;;;;;;;;;;18.10;44.00;;;;;;1591272;73;1118;-77
2024/02/16 04:35:50;;;;;;;;;;;18.00;43.90;;;;;;1591572;73;774;-73
2024/02/16 04:37:52;;;;;;;;;;;18.00;43.90;;;;;;1580275;73;1129;-75
2024/02/16 04:39:54;;;;;;;;;;;18.00;43.90;;;;;;1576043;74;1919;-74
2024/02/16 04:41:56;;;;;;;;;;;18.00;43.90;;;;;;1589701;73;571;-78
2024/02/16 04:43:58;;;;;;;;;;;18.00;43.90;;;;;;1593775;73;663;-74
2024/02/16 04:46:00;;;;;;;;;;;18.10;44.00;;;;;;1599142;73;671;-75
2024/02/16 04:48:05;;;;;;;;;;;18.00;43.90;;;;;;1589272;73;1164;-72
2024/02/16 04:50:10;;;;;;;;;;;18.00;43.90;;;;;;1566898;73;811;-77
2024/02/16 04:52:12;;;;;;;;;;;18.00;43.90;;;;;;1572901;73;677;-77
2024/02/16 04:54:14;;;;;;;;;;;18.00;43.90;;;;;;1593084;74;623;-74
2024/02/16 04:56:16;;;;;;;;;;;18.00;43.90;;;;;;1588172;73;664;-76
2024/02/16 04:58:18;;;;;;;;;;;18.10;44.00;;;;;;1593145;73;1185;-73
2024/02/16 05:00:20;;;;;;;;;;;18.10;44.00;;;;;;1592921;73;1930;-74
2024/02/16 05:02:21;;;;;;;;;;;18.00;43.90;;;;;;1592798;73;720;-75
2024/02/16 05:04:23;;;;;;;;;;;18.10;44.00;;;;;;1587009;73;781;-75
2024/02/16 05:06:25;;;;;;;;;;;18.00;43.90;;;;;;1592566;73;710;-75
2024/02/16 05:08:27;;;;;;;;;;;18.00;43.90;;;;;;1570084;73;1144;-76
2024/02/16 05:10:29;;;;;;;;;;;18.00;43.90;;;;;;1576108;74;696;-76
2024/02/16 05:12:31;;;;;;;;;;;18.10;44.00;;;;;;1593346;73;636;-78
2024/02/16 05:14:33;;;;;;;;;;;18.00;43.90;;;;;;1590827;73;648;-78
2024/02/16 05:16:35;;;;;;;;;;;18.00;43.90;;;;;;1586110;73;627;-75
2024/02/16 05:18:36;;;;;;;;;;;18.00;43.90;;;;;;1575373;73;1143;-75
2024/02/16 05:20:38;;;;;;;;;;;18.10;44.00;;;;;;1592597;73;1944;-73
2024/02/16 05:22:40;;;;;;;;;;;18.10;44.10;;;;;;1572552;73;718;-73
2024/02/16 05:24:42;;;;;;;;;;;18.00;43.90;;;;;;1569578;73;685;-77
2024/02/16 05:26:45;;;;;;;;;;;18.10;44.00;;;;;;1589892;73;657;-76
2024/02/16 05:28:47;;;;;;;;;;;18.00;43.90;;;;;;1591273;73;1130;-76
2024/02/16 05:30:49;;;;;;;;;;;18.10;44.00;;;;;;1586010;73;632;-77
2024/02/16 05:32:53;;;;;;;;;;;18.10;44.00;;;;;;1589056;73;740;-75
2024/02/16 05:34:54;;;;;;;;;;;18.00;43.90;;;;;;1587882;74;1205;-77
2024/02/16 05:36:56;;;;;;;;;;;18.00;43.90;;;;;;1588840;74;732;-75
2024/02/16 05:39:09;;;;;;;;;;;18.00;43.90;;;;;;1604292;73;1145;-73
2024/02/16 05:41:01;;;;;;;;;;;18.00;43.90;;;;;;1590076;74;1949;-78
2024/02/16 05:43:04;;;;;;;;;;;18.00;43.90;;;;;;1587116;74;642;-75
2024/02/16 05:45:06;;;;;;;;;;;18.00;43.90;;;;;;1585136;74;689;-75
2024/02/16 05:47:08;;;;;;;;;;;18.00;43.90;;;;;;1565231;73;710;-75
2024/02/16 05:49:10;;;;;;;;;;;18.00;43.90;;;;;;1591057;73;1039;-75
2024/02/16 05:51:12;;;;;;;;;;;18.00;43.90;;;;;;1589731;73;675;-74
2024/02/16 05:53:14;;;;;;;;;;;18.10;44.00;;;;;;1589985;73;623;-76
2024/02/16 05:55:18;;;;;;;;;;;18.00;43.90;;;;;;1586885;73;650;-76
2024/02/16 05:57:20;;;;;;;;;;;18.10;44.00;;;;;;1593295;73;1805;-76
2024/02/16 05:59:22;;;;;;;;;;;18.00;43.80;;;;;;1592132;73;669;-79
2024/02/16 06:01:24;;;;;;;;;;;18.00;43.80;;;;;;1589361;73;1938;-76
2024/02/16 06:03:26;;;;;;;;;;;18.00;43.90;;;;;;1582462;73;673;-75
2024/02/16 06:05:28;;;;;;;;;;;18.00;43.90;;;;;;1591946;73;718;-74
2024/02/16 06:07:30;;;;;;;;;;;18.00;43.90;;;;;;1577768;74;1135;-80
2024/02/16 06:09:35;;;;;;;;;;;18.00;43.80;;;;;;1581818;73;1378;-80
2024/02/16 06:11:39;;;;;;;;;;;18.00;43.90;;;;;;1581896;73;737;-78
2024/02/16 06:13:41;;;;;;;;;;;18.00;43.90;;;;;;1600511;73;673;-74
2024/02/16 06:15:43;;;;;;;;;;;18.10;44.00;;;;;;1592637;73;646;-77
2024/02/16 06:17:45;;;;;;;;;;;18.00;43.90;;;;;;1583728;73;1091;-78
2024/02/16 06:19:47;;;;;;;;;;;18.00;43.90;;;;;;1577101;73;906;-75
2024/02/16 06:21:49;;;;;;;;;;;18.00;43.90;;;;;;1585892;73;1914;-77
2024/02/16 06:23:51;;;;;;;;;;;18.10;44.00;;;;;;1578336;74;665;-73
2024/02/16 06:25:53;;;;;;;;;;;18.00;43.90;;;;;;1571608;73;712;-76
2024/02/16 06:27:55;;;;;;;;;;;18.10;44.00;;;;;;1588559;73;1157;-75
2024/02/16 06:29:57;;;;;;;;;;;18.00;43.90;;;;;;1579570;73;678;-75
2024/02/16 06:31:59;;;;;;;;;;;18.00;43.90;;;;;;1591606;73;647;-73
2024/02/16 06:34:00;;;;;;;;;;;18.00;43.90;;;;;;1569020;73;732;-75
2024/02/16 06:36:02;;;;;;;;;;;18.00;43.90;;;;;;1572162;73;576;-76
2024/02/16 06:38:04;;;;;;;;;;;18.00;43.90;;;;;;1605212;72;1144;-76
2024/02/16 06:40:10;;;;;;;;;;;18.00;43.90;;;;;;1604343;73;654;-76
2024/02/16 06:42:15;;;;;;;;;;;18.00;43.90;;;;;;1574765;73;1923;-74
2024/02/16 06:44:14;;;;;;;;;;;18.00;43.90;;;;;;1573928;73;1244;-74
2024/02/16 06:46:16;;;;;;;;;;;18.00;43.90;;;;;;1586803;73;707;-73
2024/02/16 06:48:18;;;;;;;;;;;18.00;43.80;;;;;;1585683;73;1214;-74
2024/02/16 06:50:19;;;;;;;;;;;18.00;43.80;;;;;;1585498;73;784;-75
2024/02/16 06:52:21;;;;;;;;;;;18.00;43.90;;;;;;1590753;74;762;-76
2024/02/16 06:54:24;;;;;;;;;;;18.10;44.00;;;;;;1592611;73;675;-79
2024/02/16 06:56:26;;;;;;;;;;;18.00;43.80;;;;;;1585664;74;668;-75
2024/02/16 06:58:28;;;;;;;;;;;18.00;43.90;;;;;;1588408;73;1214;-76
2024/02/16 07:00:30;;;;;;;;;;;18.00;43.90;;;;;;1569677;73;678;-77
2024/02/16 07:02:32;;;;;;;;;;;18.00;43.90;;;;;;1574655;74;1939;-75
2024/02/16 07:04:34;;;;;;;;;;;18.00;43.90;;;;;;1590557;73;643;-75
2024/02/16 07:06:36;;;;;;;;;;;18.00;43.80;;;;;;1591756;73;1337;-75
2024/02/16 07:08:38;;;;;;;;;;;18.00;43.90;;;;;;1610537;72;1118;-75
2024/02/16 07:10:40;;;;;;;;;;;18.00;43.90;;;;;;1588425;73;658;-74
2024/02/16 07:12:42;;;;;;;;;;;18.00;43.90;;;;;;1591532;73;755;-75
2024/02/16 07:14:46;;;;;;;;;;;18.10;44.00;;;;;;1590059;73;764;-75
2024/02/16 07:16:47;;;;;;;;;;;18.00;43.90;;;;;;1583942;74;1811;-76
2024/02/16 07:18:49;;;;;;;;;;;18.00;43.90;;;;;;1589345;73;1083;-77
2024/02/16 07:20:51;;;;;;;;;;;18.10;44.00;;;;;;1580802;74;1934;-79
2024/02/16 07:22:53;;;;;;;;;;;18.00;43.90;;;;;;1572630;73;638;-78
2024/02/16 07:24:55;;;;;;;;;;;18.00;43.90;;;;;;1593394;73;684;-77
2024/02/16 07:26:57;;;;;;;;;;;18.00;43.90;;;;;;1588659;73;743;-75
2024/02/16 07:28:59;;;;;;;;;;;18.00;43.90;;;;;;1591267;73;1078;-74
2024/02/16 07:31:01;;;;;;;;;;;18.00;43.90;;;;;;1589521;73;639;-75
2024/02/16 07:33:02;;;;;;;;;;;18.00;43.90;;;;;;1590570;73;696;-76
2024/02/16 07:35:04;;;;;;;;;;;18.00;43.90;;;;;;1582303;74;679;-77
2024/02/16 07:37:07;;;;;;;;;;;18.00;43.90;;;;;;1595623;73;699;-75
2024/02/16 07:39:11;;;;;;;;;;;18.00;43.90;;;;;;1591085;73;1110;-77
2024/02/16 07:41:13;;;;;;;;;;;18.00;43.90;;;;;;1577368;73;1910;-79
2024/02/16 07:43:15;;;;;;;;;;;18.00;43.90;;;;;;1582710;73;626;-76
2024/02/16 07:45:17;;;;;;;;;;;18.00;43.90;;;;;;1601048;73;482;-74
2024/02/16 07:47:19;;;;;;;;;;;18.00;43.90;;;;;;1571027;73;1100;-76
2024/02/16 07:49:21;;;;;;;;;;;18.00;43.90;;;;;;1578702;73;2089;-69
2024/02/16 07:51:24;;;;;;;;;;;18.00;43.90;;;;;;1559420;75;756;-71
2024/02/16 07:53:26;;;;;;;;;;;18.00;43.90;;;;;;1548705;75;702;-69
2024/02/16 07:55:28;;;;;;;;;;;18.10;43.90;;;;;;1552644;76;769;-68
2024/02/16 07:57:30;;;;;;;;;;;18.00;43.90;;;;;;1557650;76;716;-70
2024/02/16 07:59:32;;;;;;;;;;;18.00;43.80;;;;;;1560698;75;1183;-70
2024/02/16 08:01:34;;;;;;;;;;;18.00;43.90;;;;;;1558079;75;1928;-68
2024/02/16 08:03:36;;;;;;;;;;;18.00;43.80;;;;;;1560827;76;652;-70
2024/02/16 08:05:38;;;;;;;;;;;18.00;43.80;;;;;;1559835;75;591;-69
2024/02/16 08:07:44;;;;;;;;;;;18.00;43.90;;;;;;1559859;75;630;-67
2024/02/16 08:09:47;;;;;;;;;;;18.00;43.90;;;;;;1556956;76;1223;-69
2024/02/16 08:11:48;;;;;;;;;;;18.00;43.90;;;;;;1561469;76;651;-69
2024/02/16 08:13:50;;;;;;;;;;;18.10;44.00;;;;;;1558332;75;707;-70
2024/02/16 08:15:52;;;;;;;;;;;18.10;43.90;;;;;;1561619;76;645;-73
2024/02/16 08:17:54;;;;;;;;;;;18.00;43.90;;;;;;1559240;75;1124;-72
2024/02/16 08:19:56;;;;;;;;;;;18.00;43.90;;;;;;1560208;76;649;-72
2024/02/16 08:21:58;;;;;;;;;;;18.00;43.90;;;;;;1560993;75;2081;-67
2024/02/16 08:24:00;;;;;;;;;;;18.00;43.90;;;;;;1561443;75;641;-69
2024/02/16 08:26:02;;;;;;;;;;;18.00;43.80;;;;;;1559542;75;582;-67
2024/02/16 08:28:04;;;;;;;;;;;18.00;43.80;;;;;;1558652;75;1105;-67
2024/02/16 08:30:08;;;;;;;;;;;18.00;43.90;;;;;;1561561;75;600;-71
2024/02/16 08:32:10;;;;;;;;;;;18.00;43.90;;;;;;1561669;76;708;-72
2024/02/16 08:34:12;;;;;;;;;;;18.00;43.90;;;;;;1561529;75;717;-69
2024/02/16 08:36:15;;;;;;;;;;;18.00;43.90;;;;;;1561563;75;675;-68
2024/02/16 08:38:16;;;;;;;;;;;18.00;43.90;;;;;;1561454;75;1148;-69
2024/02/16 08:40:18;;;;;;;;;;;18.10;43.90;;;;;;1561126;75;558;-68
2024/02/16 08:42:22;;;;;;;;;;;18.00;43.80;;;;;;1560706;75;1922;-68
2024/02/16 08:44:24;;;;;;;;;;;18.00;43.80;;;;;;1559649;76;714;-70
2024/02/16 08:46:26;;;;;;;;;;;18.00;43.90;;;;;;1559854;76;660;-70
2024/02/16 08:48:28;;;;;;;;;;;18.00;43.80;;;;;;1561220;75;1151;-70
2024/02/16 08:50:30;;;;;;;;;;;18.00;43.80;;;;;;1592730;73;712;-70
2024/02/16 08:52:32;;;;;;;;;;;18.10;43.90;;;;;;1591185;73;682;-70
2024/02/16 08:54:34;;;;;;;;;;;18.00;43.90;;;;;;1590347;73;647;-70
2024/02/16 08:56:39;;;;;;;;;;;18.00;43.90;;;;;;1591057;73;685;-71
2024/02/16 08:58:40;;;;;;;;;;;18.00;43.80;;;;;;1603219;72;1637;-67
2024/02/16 09:00:42;;;;;;;;;;;18.00;43.80;;;;;;1602037;73;666;-68
2024/02/16 09:02:44;;;;;;;;;;;18.00;43.80;;;;;;1594163;73;1915;-72
2024/02/16 09:04:46;;;;;;;;;;;18.00;43.90;;;;;;1590042;73;688;-69
2024/02/16 09:06:49;;;;;;;;;;;18.00;43.80;;;;;;1592541;73;651;-70
2024/02/16 09:08:50;;;;;;;;;;;18.10;43.90;;;;;;1612122;72;1142;-70
2024/02/16 09:10:52;;;;;;;;;;;18.00;43.80;;;;;;1604618;73;559;-69
2024/02/16 09:12:54;;;;;;;;;;;18.00;43.90;;;;;;1589930;73;704;-70
2024/02/16 09:14:56;;;;;;;;;;;18.00;43.80;;;;;;1590389;73;720;-71
2024/02/16 09:16:58;;;;;;;;;;;18.00;43.80;;;;;;1592678;73;738;-67
2024/02/16 09:19:00;;;;;;;;;;;18.00;43.80;;;;;;1593814;73;1108;-70
2024/02/16 09:21:02;;;;;;;;;;;18.00;43.80;;;;;;1590795;73;663;-70
2024/02/16 09:23:04;;;;;;;;;;;18.00;43.80;;;;;;1592431;73;1935;-67
2024/02/16 09:25:06;;;;;;;;;;;18.00;43.80;;;;;;1576926;74;688;-68
2024/02/16 09:27:09;;;;;;;;;;;18.00;43.80;;;;;;1609328;73;642;-66
2024/02/16 09:29:11;;;;;;;;;;;18.00;43.80;;;;;;1597435;73;1157;-70
2024/02/16 09:31:15;;;;;;;;;;;18.10;43.90;;;;;;1592581;73;706;-69
2024/02/16 09:33:17;;;;;;;;;;;18.00;43.80;;;;;;1588356;73;1078;-69
2024/02/16 09:35:19;;;;;;;;;;;18.00;43.80;;;;;;1589173;74;704;-69
2024/02/16 09:37:21;;;;;;;;;;;18.00;43.80;;;;;;1594482;73;682;-68
2024/02/16 09:39:22;;;;;;;;;;;18.10;43.90;;;;;;1610717;72;1135;-70
2024/02/16 09:41:24;;;;;;;;;;;18.10;43.90;;;;;;1595772;73;712;-69
2024/02/16 09:43:27;;;;;;;;;;;18.00;43.70;;;;;;1610401;73;1937;-70
2024/02/16 09:45:29;;;;;;;;;;;18.00;43.80;;;;;;1594994;73;686;-69
2024/02/16 09:47:32;;;;;;;;;;;18.00;43.80;;;;;;1593832;73;738;-69
2024/02/16 09:49:34;;;;;;;;;;;18.00;43.80;;;;;;1604211;73;1098;-69
2024/02/16 09:51:36;;;;;;;;;;;18.10;43.90;;;;;;1613904;73;699;-70
2024/02/16 09:53:38;;;;;;;;;;;18.00;43.80;;;;;;1588612;73;699;-67
2024/02/16 09:55:40;;;;;;;;;;;18.10;43.90;;;;;;1600173;73;1633;-67
2024/02/16 09:57:44;;;;;;;;;;;18.10;43.90;;;;;;1594852;73;673;-70
2024/02/16 09:59:46;;;;;;;;;;;18.00;43.80;;;;;;1593210;73;698;-69
2024/02/16 10:01:47;;;;;;;;;;;18.10;43.90;;;;;;1591034;73;1925;-69
2024/02/16 10:03:50;;;;;;;;;;;18.10;43.90;;;;;;1592035;73;626;-72
2024/02/16 10:05:56;;;;;;;;;;;18.00;43.80;;;;;;1590197;73;693;-72
2024/02/16 10:07:55;;;;;;;;;;;18.10;43.90;;;;;;1610351;72;1249;-70
2024/02/16 10:09:57;;;;;;;;;;;18.00;43.80;;;;;;1610214;73;670;-70
2024/02/16 10:12:00;;;;;;;;;;;18.00;43.90;;;;;;1592368;73;788;-70
2024/02/16 10:14:02;;;;;;;;;;;18.10;43.90;;;;;;1593662;74;640;-70
2024/02/16 10:16:05;;;;;;;;;;;18.00;43.80;;;;;;1591276;73;690;-71
2024/02/16 10:18:07;;;;;;;;;;;18.10;43.90;;;;;;1591602;73;1166;-73
2024/02/16 10:20:11;;;;;;;;;;;18.00;43.90;;;;;;1592808;73;600;-72
2024/02/16 10:22:13;;;;;;;;;;;18.10;43.90;;;;;;1585895;73;1901;-73
2024/02/16 10:24:15;;;;;;;;;;;18.10;43.90;;;;;;1602409;73;731;-71
2024/02/16 10:26:17;;;;;;;;;;;18.10;43.90;;;;;;1602675;73;785;-72
2024/02/16 10:28:21;;;;;;;;;;;18.10;44.00;;;;;;1593407;73;1139;-72
2024/02/16 10:30:22;;;;;;;;;;;18.00;43.90;;;;;;1603875;73;1639;-73
2024/02/16 10:32:24;;;;;;;;;;;18.00;43.90;;;;;;1610886;73;723;-74
2024/02/16 10:34:26;;;;;;;;;;;18.10;43.90;;;;;;1590317;73;671;-70
2024/02/16 10:36:31;;;;;;;;;;;18.00;43.80;;;;;;1592001;73;705;-71
2024/02/16 10:38:33;;;;;;;;;;;18.00;43.80;;;;;;1612405;72;1221;-70
2024/02/16 10:40:35;;;;;;;;;;;18.00;43.80;;;;;;1599078;73;635;-73
2024/02/16 10:42:37;;;;;;;;;;;18.00;43.80;;;;;;1594235;73;1921;-72
2024/02/16 10:44:40;;;;;;;;;;;18.00;43.80;;;;;;1594219;73;665;-71
2024/02/16 10:46:42;;;;;;;;;;;18.00;43.80;;;;;;1589922;73;626;-70
2024/02/16 10:48:43;;;;;;;;;;;18.10;43.90;;;;;;1589002;73;1122;-70
2024/02/16 10:50:45;;;;;;;;;;;18.10;43.90;;;;;;1590962;73;1383;-70
2024/02/16 10:52:47;;;;;;;;;;;18.10;43.90;;;;;;1611853;73;647;-69
2024/02/16 10:54:49;;;;;;;;;;;18.10;43.90;;;;;;1601410;73;652;-69
2024/02/16 10:56:52;;;;;;;;;;;18.00;43.70;;;;;;1589217;73;763;-70
2024/02/16 10:58:55;;;;;;;;;;;18.00;43.70;;;;;;1594021;73;1276;-70
2024/02/16 11:00:57;;;;;;;;;;;18.00;43.70;;;;;;1602567;73;724;-72
2024/02/16 11:03:00;;;;;;;;;;;18.10;43.90;;;;;;1618612;73;1897;-68
2024/02/16 11:05:02;;;;;;;;;;;18.10;43.90;;;;;;1591484;73;710;-68
2024/02/16 11:07:06;;;;;;;;;;;18.10;43.90;;;;;;1582901;73;1098;-69
2024/02/16 11:09:10;;;;;;;;;;;18.00;43.70;;;;;;1584194;73;1140;-67
2024/02/16 11:11:14;;;;;;;;;;;18.10;43.90;;;;;;1592694;73;1579;-72
2024/02/16 11:13:16;;;;;;;;;;;18.00;43.80;;;;;;1591366;73;807;-72
2024/02/16 11:15:17;;;;;;;;;;;18.10;43.90;;;;;;1569677;74;1157;-70
2024/02/16 11:17:23;;;;;;;;;;;18.10;43.90;;;;;;1548633;74;1162;-70
2024/02/16 11:19:24;;;;;;;;;;;18.10;43.90;;;;;;1593422;73;1147;-70
2024/02/16 11:21:26;;;;;;;;;;;18.10;43.90;;;;;;1590946;73;756;-70
2024/02/16 11:23:31;;;;;;;;;;;18.00;43.80;;;;;;1594333;73;1934;-71
2024/02/16 11:25:33;;;;;;;;;;;18.10;43.90;;;;;;1605278;73;750;-72
2024/02/16 11:27:35;;;;;;;;;;;18.00;43.80;;;;;;1611664;73;810;-71
2024/02/16 11:29:38;;;;;;;;;;;18.00;43.80;;;;;;1591723;73;1095;-72
2024/02/16 11:31:40;;;;;;;;;;;18.10;43.90;;;;;;1578966;73;673;-69
2024/02/16 11:33:48;;;;;;;;;;;18.00;43.70;;;;;;1599528;73;644;-71
2024/02/16 11:35:55;;;;;;;;;;;18.10;43.90;;;;;;1587327;73;864;-70
2024/02/16 11:37:58;;;;;;;;;;;18.10;43.90;;;;;;1593283;73;1672;-70
2024/02/16 11:39:59;;;;;;;;;;;18.10;43.90;;;;;;1592088;73;676;-69
2024/02/16 11:42:02;;;;;;;;;;;18.10;43.90;;;;;;1590476;73;626;-72
2024/02/16 11:44:04;;;;;;;;;;;18.10;43.90;;;;;;1610817;73;1925;-69
2024/02/16 11:46:17;;;;;;;;;;;18.10;43.90;;;;;;1610994;73;703;-72
2024/02/16 11:48:23;;;;;;;;;;;18.10;43.90;;;;;;1597633;72;1923;-68
2024/02/16 11:50:25;;;;;;;;;;;18.10;43.90;;;;;;1602631;73;970;-72
2024/02/16 11:52:27;;;;;;;;;;;17.80;43.60;;;;;;1586487;73;1178;-71
2024/02/16 11:54:30;;;;;;;;;;;18.00;43.70;;;;;;1603060;73;649;-72
2024/02/16 11:56:31;;;;;;;;;;;18.10;43.80;;;;;;1592842;73;674;-70
2024/02/16 11:58:33;;;;;;;;;;;18.10;43.90;;;;;;1592291;73;1199;-71
2024/02/16 12:00:36;;;;;;;;;;;18.00;43.70;;;;;;1589431;73;661;-71
2024/02/16 12:02:37;;;;;;;;;;;18.10;43.90;;;;;;1619264;73;1914;-70
2024/02/16 12:04:39;;;;;;;;;;;18.00;43.70;;;;;;1597924;73;779;-73
2024/02/16 12:06:45;;;;;;;;;;;18.00;43.70;;;;;;1592212;73;706;-71
2024/02/16 12:08:45;;;;;;;;;;;18.00;43.70;;;;;;1593770;72;1344;-71